createdAt,value
2023-01-27T00:01:17.304Z,1.83
2023-01-27T00:03:45.808Z,2.40
2023-01-27T00:06:14.227Z,2.30
2023-01-27T00:08:42.240Z,2.75
2023-01-27T00:11:27.705Z,2.05
2023-01-27T00:13:57.172Z,2.35
2023-01-27T00:16:25.316Z,2.95
2023-01-27T00:18:53.343Z,2.42
2023-01-27T00:21:38.569Z,2.30
2023-01-27T00:24:24.661Z,2.05
2023-01-27T00:26:52.790Z,2.13
2023-01-27T00:29:22.165Z,2.58
2023-01-27T00:32:07.881Z,2.05
2023-01-27T00:34:35.887Z,1.83
2023-01-27T00:37:04.122Z,2.33
2023-01-27T00:39:32.247Z,2.65
2023-01-27T00:42:00.394Z,3.03
2023-01-27T00:44:30.054Z,1.73
2023-01-27T00:46:58.193Z,2.22
2023-01-27T00:49:26.295Z,2.35
2023-01-27T00:51:55.122Z,2.17
2023-01-27T00:54:23.261Z,2.30
2023-01-27T00:56:51.843Z,1.80
2023-01-27T00:59:22.611Z,2.33
2023-01-27T01:01:52.302Z,1.90
2023-01-27T01:04:20.351Z,2.33
2023-01-27T01:06:48.584Z,2.03
2023-01-27T01:09:16.620Z,1.98
2023-01-27T01:11:44.823Z,2.85
2023-01-27T01:14:12.873Z,2.22
2023-01-27T01:16:41.075Z,1.90
2023-01-27T01:19:10.470Z,2.08
2023-01-27T01:21:40.758Z,2.33
2023-01-27T01:24:09.255Z,2.47
2023-01-27T01:26:37.342Z,2.20
2023-01-27T01:29:05.711Z,3.47
2023-01-27T01:31:33.769Z,2.22
2023-01-27T01:34:01.788Z,2.72
2023-01-27T01:36:31.273Z,1.98
2023-01-27T01:39:01.109Z,2.55
2023-01-27T01:41:29.963Z,2.47
2023-01-27T01:43:58.201Z,1.95
2023-01-27T01:46:26.323Z,1.83
2023-01-27T01:48:56.165Z,1.88
2023-01-27T01:51:28.048Z,2.30
2023-01-27T01:54:02.123Z,2.58
2023-01-27T01:56:35.008Z,1.80
2023-01-27T01:59:07.196Z,2.55
2023-01-27T02:01:35.370Z,2.17
2023-01-27T02:04:09.011Z,2.58
2023-01-27T02:06:44.364Z,1.92
2023-01-27T02:09:13.792Z,2.28
2023-01-27T02:11:41.802Z,2.35
2023-01-27T02:14:19.448Z,2.53
2023-01-27T02:16:48.136Z,2.85
2023-01-27T02:19:23.827Z,2.70
2023-01-27T02:21:54.018Z,2.45
2023-01-27T02:26:54.839Z,2.22
2023-01-27T02:29:23.095Z,2.85
2023-01-27T02:31:51.220Z,2.50
2023-01-27T02:34:23.096Z,2.63
2023-01-27T02:36:58.358Z,2.30
2023-01-27T02:39:33.881Z,3.00
2023-01-27T02:42:07.152Z,2.38
2023-01-27T02:44:35.305Z,2.50
2023-01-27T02:47:03.299Z,2.80
2023-01-27T02:49:31.279Z,2.85
2023-01-27T02:51:59.904Z,2.88
2023-01-27T02:54:30.449Z,2.22
2023-01-27T02:56:58.497Z,4.13
2023-01-27T02:59:28.163Z,3.22
2023-01-27T03:01:56.211Z,2.60
2023-01-27T03:04:24.469Z,2.88
2023-01-27T03:06:52.556Z,2.63
2023-01-27T03:09:20.600Z,2.55
2023-01-27T03:12:05.899Z,2.83
2023-01-27T03:14:52.854Z,3.17
2023-01-27T03:17:38.292Z,3.08
2023-01-27T03:20:07.104Z,2.83
2023-01-27T03:22:35.137Z,3.22
2023-01-27T03:25:03.301Z,2.90
2023-01-27T03:27:31.345Z,3.33
2023-01-27T03:30:00.737Z,2.78
2023-01-27T03:32:31.071Z,3.22
2023-01-27T03:35:00.531Z,3.58
2023-01-27T03:37:47.122Z,3.10
2023-01-27T03:40:33.186Z,3.45
2023-01-27T03:43:18.636Z,3.08
2023-01-27T03:46:07.919Z,2.78
2023-01-27T03:48:36.559Z,2.88
2023-01-27T03:51:07.219Z,2.97
2023-01-27T03:53:35.588Z,3.80
2023-01-27T03:56:03.863Z,3.05
2023-01-27T03:58:34.076Z,3.65
2023-01-27T04:01:05.206Z,3.28
2023-01-27T04:03:52.017Z,3.67
2023-01-27T04:06:39.590Z,3.65
2023-01-27T04:09:09.338Z,4.03
2023-01-27T04:11:55.332Z,3.60
2023-01-27T04:14:24.879Z,3.30
2023-01-27T04:16:56.049Z,3.88
2023-01-27T04:19:24.289Z,4.40
2023-01-27T04:21:52.450Z,3.80
2023-01-27T04:24:26.552Z,3.83
2023-01-27T04:26:57.260Z,2.90
2023-01-27T04:29:27.282Z,3.35
2023-01-27T04:31:57.986Z,3.85
2023-01-27T04:34:26.376Z,4.55
2023-01-27T04:36:54.466Z,3.50
2023-01-27T04:39:22.486Z,3.97
2023-01-27T04:41:54.144Z,3.85
2023-01-27T04:44:22.177Z,3.83
2023-01-27T04:46:50.529Z,4.72
2023-01-27T04:49:20.186Z,4.05
2023-01-27T04:51:48.305Z,4.00
2023-01-27T04:54:16.335Z,4.15
2023-01-27T04:56:56.343Z,4.28
2023-01-27T04:59:24.541Z,3.80
2023-01-27T05:01:54.289Z,3.80
2023-01-27T05:04:24.287Z,3.80
2023-01-27T05:06:52.296Z,4.68
2023-01-27T05:09:20.342Z,3.88
2023-01-27T05:11:48.389Z,3.97
2023-01-27T05:14:16.426Z,3.58
2023-01-27T05:16:44.492Z,3.50
2023-01-27T05:19:12.559Z,4.38
2023-01-27T05:21:43.418Z,4.07
2023-01-27T05:24:11.845Z,4.47
2023-01-27T05:26:40.950Z,3.63
2023-01-27T05:29:10.243Z,3.63
2023-01-27T05:31:38.392Z,3.03
2023-01-27T05:34:06.480Z,3.63
2023-01-27T05:36:34.531Z,3.30
2023-01-27T05:39:04.015Z,3.78
2023-01-27T05:41:32.519Z,4.32
2023-01-27T05:44:00.689Z,4.30
2023-01-27T05:46:30.388Z,3.17
2023-01-27T05:49:01.798Z,3.03
2023-01-27T05:51:31.931Z,4.57
2023-01-27T05:56:29.391Z,3.15
2023-01-27T05:58:58.666Z,3.88
2023-01-27T06:01:29.554Z,3.58
2023-01-27T06:03:57.883Z,3.38
2023-01-27T06:06:27.782Z,3.95
2023-01-27T06:08:55.918Z,3.50
2023-01-27T06:11:24.472Z,4.25
2023-01-27T06:13:54.885Z,3.58
2023-01-27T06:16:24.895Z,4.30
2023-01-27T06:18:53.519Z,3.88
2023-01-27T06:21:21.878Z,3.83
2023-01-27T06:23:50.158Z,4.13
2023-01-27T06:26:20.375Z,3.60
2023-01-27T06:31:21.672Z,3.60
2023-01-27T06:33:49.934Z,4.40
2023-01-27T06:36:20.576Z,3.00
2023-01-27T06:38:49.942Z,3.75
2023-01-27T06:41:18.001Z,3.50
2023-01-27T06:43:46.217Z,4.20
2023-01-27T06:46:15.138Z,4.05
2023-01-27T06:48:44.536Z,3.95
2023-01-27T06:51:13.036Z,3.75
2023-01-27T06:53:41.527Z,3.90
2023-01-27T06:56:09.762Z,4.85
2023-01-27T06:58:37.915Z,4.45
2023-01-27T07:01:07.339Z,4.03
2023-01-27T07:03:36.948Z,3.67
2023-01-27T07:06:06.875Z,4.22
2023-01-27T07:08:35.574Z,4.10
2023-01-27T07:11:05.554Z,4.30
2023-01-27T07:13:33.587Z,4.28
2023-01-27T07:16:01.699Z,4.30
2023-01-27T07:18:29.921Z,4.70
2023-01-27T07:20:57.930Z,4.25
2023-01-27T07:23:27.337Z,4.30
2023-01-27T07:25:55.529Z,4.13
2023-01-27T07:28:25.276Z,3.67
2023-01-27T07:30:53.469Z,3.25
2023-01-27T07:33:22.183Z,3.25
2023-01-27T07:35:51.008Z,3.30
2023-01-27T07:38:19.077Z,4.10
2023-01-27T07:40:48.694Z,3.65
2023-01-27T07:43:16.806Z,3.72
2023-01-27T07:45:48.932Z,3.65
2023-01-27T07:48:17.512Z,3.25
2023-01-27T07:50:46.077Z,3.70
2023-01-27T07:53:14.110Z,3.50
2023-01-27T07:55:42.694Z,2.88
2023-01-27T07:58:13.220Z,3.45
2023-01-27T08:00:41.553Z,3.13
2023-01-27T08:03:16.804Z,3.28
2023-01-27T08:05:44.852Z,3.90
2023-01-27T08:08:12.934Z,3.15
2023-01-27T08:10:41.120Z,3.25
2023-01-27T08:13:09.190Z,3.70
2023-01-27T08:15:38.681Z,3.03
2023-01-27T08:18:06.788Z,2.90
2023-01-27T08:20:34.824Z,3.40
2023-01-27T08:23:02.930Z,3.03
2023-01-27T08:25:30.929Z,3.10
2023-01-27T08:27:59.037Z,3.35
2023-01-27T08:30:27.168Z,2.85
2023-01-27T08:32:56.736Z,2.78
2023-01-27T08:35:24.842Z,3.58
2023-01-27T08:37:52.968Z,2.90
2023-01-27T08:40:21.464Z,2.75
2023-01-27T08:42:51.282Z,2.92
2023-01-27T08:45:19.444Z,2.85
2023-01-27T08:47:47.539Z,2.75
2023-01-27T08:50:17.291Z,2.80
2023-01-27T08:52:45.291Z,2.35
2023-01-27T08:55:13.318Z,2.50
2023-01-27T08:57:41.753Z,2.72
2023-01-27T09:00:12.889Z,2.45
2023-01-27T09:02:41.498Z,2.60
2023-01-27T09:05:09.768Z,2.03
2023-01-27T09:07:39.980Z,2.83
2023-01-27T09:12:44.413Z,2.60
2023-01-27T09:15:13.438Z,2.53
2023-01-27T09:17:42.313Z,2.70
2023-01-27T09:20:12.467Z,2.22
2023-01-27T09:22:43.108Z,2.17
2023-01-27T09:25:18.541Z,1.95
2023-01-27T09:27:46.782Z,2.80
2023-01-27T09:30:17.020Z,2.83
2023-01-27T09:32:45.249Z,2.17
2023-01-27T09:35:13.623Z,3.08
2023-01-27T09:37:48.607Z,2.42
2023-01-27T09:40:30.635Z,2.20
2023-01-27T09:43:49.291Z,2.40
2023-01-27T09:46:35.046Z,2.33
2023-01-27T09:49:22.158Z,1.95
2023-01-27T09:52:02.870Z,2.72
2023-01-27T09:54:56.248Z,2.22
2023-01-27T09:57:36.372Z,2.45
2023-01-27T10:00:28.821Z,2.08
2023-01-27T10:03:23.926Z,1.67
2023-01-27T10:06:27.307Z,1.60
2023-01-27T10:09:15.501Z,1.67
2023-01-27T10:11:54.509Z,2.03
2023-01-27T10:14:35.190Z,1.52
2023-01-27T10:17:17.068Z,1.25
2023-01-27T10:19:55.333Z,1.80
2023-01-27T10:22:31.566Z,1.75
2023-01-27T10:25:15.308Z,2.03
2023-01-27T10:27:48.756Z,1.58
2023-01-27T10:30:22.479Z,1.98
2023-01-27T10:33:00.252Z,1.48
2023-01-27T10:35:36.922Z,2.05
2023-01-27T10:38:14.240Z,1.65
2023-01-27T10:40:53.289Z,1.85
2023-01-27T10:43:32.770Z,1.83
2023-01-27T10:46:10.556Z,1.73
2023-01-27T10:48:45.091Z,1.42
2023-01-27T10:51:19.716Z,1.30
2023-01-27T10:53:57.498Z,1.45
2023-01-27T10:56:36.347Z,1.33
2023-01-27T10:59:16.363Z,1.67
2023-01-27T11:01:49.589Z,1.55
2023-01-27T11:04:26.982Z,1.35
2023-01-27T11:06:57.325Z,1.30
2023-01-27T11:09:30.353Z,1.90
2023-01-27T11:12:02.910Z,1.30
2023-01-27T11:14:38.823Z,1.70
2023-01-27T11:17:17.358Z,1.40
2023-01-27T11:19:56.391Z,1.35
2023-01-27T11:22:30.039Z,1.52
2023-01-27T11:25:04.521Z,1.70
2023-01-27T11:27:55.413Z,1.52
2023-01-27T11:30:29.548Z,1.73
2023-01-27T11:33:05.162Z,1.98
2023-01-27T11:35:33.366Z,1.50
2023-01-27T11:38:14.986Z,1.30
2023-01-27T11:40:45.559Z,1.52
2023-01-27T11:43:18.811Z,1.42
2023-01-27T11:45:49.760Z,1.15
2023-01-27T11:48:23.073Z,1.23
2023-01-27T11:50:51.574Z,0.98
2023-01-27T11:53:25.627Z,1.73
2023-01-27T11:55:58.529Z,1.15
2023-01-27T11:58:30.034Z,1.88
2023-01-27T12:01:02.823Z,2.88
2023-01-27T12:03:51.143Z,2.58
2023-01-27T12:06:30.295Z,2.05
2023-01-27T12:08:58.403Z,1.50
2023-01-27T12:11:28.549Z,1.40
2023-01-27T12:13:58.539Z,1.42
2023-01-27T12:16:43.634Z,2.00
2023-01-27T12:19:24.947Z,2.03
2023-01-27T12:21:57.438Z,1.90
2023-01-27T12:24:29.857Z,1.30
2023-01-27T12:26:59.124Z,1.33
2023-01-27T12:29:30.366Z,0.98
2023-01-27T12:32:01.954Z,1.33
2023-01-27T12:34:34.627Z,1.30
2023-01-27T12:37:05.803Z,0.93
2023-01-27T12:39:46.065Z,0.73
2023-01-27T12:42:36.180Z,0.95
2023-01-27T12:45:20.383Z,0.60
2023-01-27T12:48:16.108Z,0.73
2023-01-27T12:50:54.884Z,0.90
2023-01-27T12:53:26.886Z,0.60
2023-01-27T12:56:00.227Z,0.70
2023-01-27T12:58:33.153Z,0.75
2023-01-27T13:01:03.625Z,0.80
2023-01-27T13:03:38.967Z,0.85
2023-01-27T13:06:08.483Z,0.63
2023-01-27T13:08:40.920Z,0.90
2023-01-27T13:11:09.345Z,1.00
2023-01-27T13:29:03.482Z,1.02
2023-01-27T13:31:43.127Z,0.70
2023-01-27T13:34:18.763Z,0.90
2023-01-27T13:36:53.480Z,1.35
2023-01-27T13:39:29.916Z,1.00
2023-01-27T13:42:12.700Z,1.20
2023-01-27T13:44:47.298Z,1.00
2023-01-27T13:47:21.925Z,1.00
2023-01-27T13:49:57.022Z,1.10
2023-01-27T13:52:25.879Z,0.80
2023-01-27T13:54:55.878Z,0.90
2023-01-27T13:57:48.496Z,0.57
2023-01-27T14:00:24.035Z,0.70
2023-01-27T14:03:27.677Z,0.70
2023-01-27T14:06:27.206Z,0.50
2023-01-27T14:09:04.814Z,0.70
2023-01-27T14:11:40.560Z,0.73
2023-01-27T14:14:28.142Z,0.50
2023-01-27T14:17:14.979Z,0.50
2023-01-27T14:19:56.729Z,0.50
2023-01-27T14:22:35.996Z,0.70
2023-01-27T14:25:15.739Z,0.60
2023-01-27T14:27:47.973Z,1.10
2023-01-27T14:30:24.520Z,0.65
2023-01-27T14:32:58.165Z,0.82
2023-01-27T14:35:45.688Z,0.65
2023-01-27T14:38:21.751Z,0.57
2023-01-27T14:41:05.668Z,1.02
2023-01-27T14:43:43.285Z,0.88
2023-01-27T14:46:23.773Z,1.50
2023-01-27T14:49:04.578Z,1.50
2023-01-27T14:51:41.183Z,1.92
2023-01-27T14:54:37.651Z,1.33
2023-01-27T14:57:21.758Z,1.88
2023-01-27T14:59:58.171Z,0.52
2023-01-27T15:02:52.115Z,0.60
2023-01-27T15:05:27.751Z,0.98
2023-01-27T15:08:04.425Z,1.10
2023-01-27T15:10:34.550Z,1.40
2023-01-27T15:16:03.093Z,3.75
2023-01-27T15:18:59.488Z,1.42
2023-01-27T15:21:42.941Z,1.92
2023-01-27T15:24:28.274Z,1.50
2023-01-27T15:26:58.859Z,1.42
2023-01-27T15:29:30.861Z,2.30
2023-01-27T15:32:30.642Z,1.42
2023-01-27T15:35:34.762Z,1.00
2023-01-27T15:38:22.839Z,0.50
2023-01-27T15:41:18.075Z,1.10
2023-01-27T15:44:05.688Z,1.30
2023-01-27T15:46:36.177Z,0.80
2023-01-27T15:49:06.063Z,1.05
2023-01-27T15:51:37.838Z,1.63
2023-01-27T15:54:07.777Z,1.30
2023-01-27T15:56:48.496Z,1.25
2023-01-27T15:59:22.382Z,2.70
2023-01-27T16:02:00.990Z,1.10
2023-01-27T16:04:32.203Z,1.15
2023-01-27T16:07:03.720Z,1.30
2023-01-27T16:09:40.648Z,1.17
2023-01-27T16:12:42.498Z,1.15
2023-01-27T16:15:39.297Z,1.80
2023-01-27T16:18:28.104Z,1.60
2023-01-27T16:21:03.507Z,3.30
2023-01-27T16:23:43.014Z,3.00
2023-01-27T16:26:25.274Z,2.30
2023-01-27T16:29:09.001Z,1.23
2023-01-27T16:31:40.903Z,1.58
2023-01-27T16:34:19.383Z,1.73
2023-01-27T16:37:03.001Z,2.35
2023-01-27T16:39:38.836Z,1.90
2023-01-27T16:42:08.848Z,1.70
2023-01-27T16:44:43.144Z,3.05
2023-01-27T16:47:22.612Z,2.50
2023-01-27T16:49:53.805Z,4.72
2023-01-27T16:52:40.761Z,4.47
2023-01-27T16:55:24.677Z,6.85
2023-01-27T16:57:54.598Z,5.70
2023-01-27T17:00:29.447Z,5.72
2023-01-27T17:03:00.778Z,5.10
2023-01-27T17:05:29.212Z,3.60
2023-01-27T17:08:18.502Z,2.83
2023-01-27T17:10:51.828Z,2.50
2023-01-27T17:13:32.789Z,2.92
2023-01-27T17:16:09.580Z,2.20
2023-01-27T17:18:52.540Z,2.28
2023-01-27T17:21:30.069Z,3.00
2023-01-27T17:24:06.691Z,3.40
2023-01-27T17:26:37.993Z,3.90
2023-01-27T17:29:06.487Z,3.92
2023-01-27T17:31:45.609Z,3.55
2023-01-27T17:34:18.998Z,3.93
2023-01-27T17:37:06.458Z,3.83
2023-01-27T17:39:34.825Z,3.03
2023-01-27T17:42:05.161Z,6.97
2023-01-27T17:44:34.008Z,8.07
2023-01-27T17:47:04.315Z,5.07
2023-01-27T17:49:35.404Z,4.22
2023-01-27T17:52:08.954Z,4.55
2023-01-27T17:54:39.126Z,3.47
2023-01-27T17:59:40.817Z,4.22
2023-01-27T18:02:20.353Z,3.03
2023-01-27T18:04:49.624Z,3.05
2023-01-27T18:07:18.136Z,3.10
2023-01-27T18:09:47.548Z,3.35
2023-01-27T18:12:34.539Z,3.13
2023-01-27T18:15:47.311Z,3.67
2023-01-27T18:18:25.188Z,4.30
2023-01-27T18:21:06.126Z,4.55
2023-01-27T18:23:37.206Z,4.90
2023-01-27T18:26:09.692Z,4.15
2023-01-27T18:28:39.666Z,4.70
2023-01-27T18:31:16.132Z,5.35
2023-01-27T18:33:46.540Z,5.57
2023-01-27T18:36:24.441Z,7.57
2023-01-27T18:38:53.010Z,4.40
2023-01-27T18:41:26.772Z,4.00
2023-01-27T18:43:54.979Z,3.78
2023-01-27T18:46:23.688Z,4.80
2023-01-27T18:48:54.312Z,4.60
2023-01-27T18:51:22.972Z,4.72
2023-01-27T18:53:51.103Z,5.20
2023-01-27T18:56:21.494Z,6.65
2023-01-27T18:58:49.637Z,6.25
2023-01-27T19:01:24.211Z,6.05
2023-01-27T19:03:57.794Z,5.45
2023-01-27T19:06:27.603Z,5.35
2023-01-27T19:08:56.139Z,6.45
2023-01-27T19:11:40.850Z,6.13
2023-01-27T19:14:09.368Z,6.15
2023-01-27T19:16:38.104Z,6.90
2023-01-27T19:19:12.777Z,7.30
2023-01-27T19:21:41.002Z,7.13
2023-01-27T19:24:11.932Z,7.18
2023-01-27T19:26:40.106Z,7.72
2023-01-27T19:29:11.717Z,7.00
2023-01-27T19:31:40.260Z,8.18
2023-01-27T19:34:12.304Z,6.43
2023-01-27T19:36:44.514Z,9.23
2023-01-27T19:39:15.067Z,9.00
2023-01-27T19:41:45.784Z,8.38
2023-01-27T19:44:14.449Z,8.85
2023-01-27T19:46:43.692Z,9.43
2023-01-27T19:49:17.268Z,9.17
2023-01-27T19:51:48.477Z,7.72
2023-01-27T19:54:17.176Z,7.50
2023-01-27T19:56:45.593Z,9.00
2023-01-27T19:59:17.359Z,9.18
2023-01-27T20:01:45.946Z,7.47
2023-01-27T20:04:15.582Z,9.75
2023-01-27T20:06:43.771Z,11.60
2023-01-27T20:09:12.336Z,11.13
2023-01-27T20:11:42.097Z,11.00
2023-01-27T20:14:13.874Z,11.20
2023-01-27T20:16:42.937Z,7.30
2023-01-27T20:19:13.343Z,7.30
2023-01-27T20:21:43.044Z,6.82
2023-01-27T20:24:16.993Z,8.27
2023-01-27T20:26:45.463Z,9.70
2023-01-27T20:29:15.880Z,9.05
2023-01-27T20:31:46.855Z,7.82
2023-01-27T20:34:15.009Z,7.85
2023-01-27T20:36:44.738Z,10.88
2023-01-27T20:39:13.616Z,12.07
2023-01-27T20:41:41.828Z,11.85
2023-01-27T20:44:13.620Z,10.52
2023-01-27T20:46:41.761Z,11.63
2023-01-27T20:49:09.955Z,10.18
2023-01-27T20:51:38.425Z,9.75
2023-01-27T20:54:08.075Z,10.25
2023-01-27T20:56:36.822Z,9.80
2023-01-27T20:59:04.957Z,9.23
2023-01-27T21:01:33.584Z,9.05
2023-01-27T21:04:01.845Z,9.00
2023-01-27T21:06:30.076Z,9.85
2023-01-27T21:08:58.580Z,10.13
2023-01-27T21:11:28.366Z,12.00
2023-01-27T21:13:57.053Z,14.52
2023-01-27T21:16:28.631Z,17.83
2023-01-27T21:18:56.722Z,14.77
2023-01-27T21:21:28.040Z,22.15
2023-01-27T21:24:00.736Z,21.20
2023-01-27T21:26:30.359Z,23.02
2023-01-27T21:29:00.683Z,22.98
2023-01-27T21:31:30.488Z,20.33
2023-01-27T21:34:00.626Z,20.40
2023-01-27T21:36:30.952Z,13.50
2023-01-27T21:39:01.717Z,17.10
2023-01-27T21:41:48.760Z,18.20
2023-01-27T21:44:39.150Z,10.38
2023-01-27T21:47:08.564Z,8.15
2023-01-27T21:49:58.505Z,7.22
2023-01-27T21:52:33.311Z,6.38
2023-01-27T21:55:02.641Z,5.32
2023-01-27T21:57:32.824Z,7.22
2023-01-27T22:02:31.750Z,11.90
2023-01-27T22:04:59.924Z,6.70
2023-01-27T22:07:28.239Z,14.73
2023-01-27T22:09:56.374Z,10.48
2023-01-27T22:12:25.571Z,6.15
2023-01-27T22:14:55.065Z,8.27
2023-01-27T22:17:23.234Z,9.63
2023-01-27T22:19:51.454Z,11.05
2023-01-27T22:22:40.923Z,11.32
2023-01-27T22:25:10.854Z,8.98
2023-01-27T22:27:41.437Z,7.68
2023-01-27T22:30:18.239Z,6.75
2023-01-27T22:32:47.740Z,7.55
2023-01-27T22:35:18.320Z,6.95
2023-01-27T22:37:49.074Z,7.35
2023-01-27T22:40:17.989Z,8.35
2023-01-27T22:42:46.166Z,6.55
2023-01-27T22:45:16.256Z,7.53
2023-01-27T22:47:44.854Z,6.68
2023-01-27T22:50:13.921Z,7.13
2023-01-27T22:52:42.213Z,6.40
2023-01-27T22:55:12.932Z,5.68
2023-01-27T22:57:41.479Z,6.13
2023-01-27T23:00:11.238Z,8.23
2023-01-27T23:02:40.885Z,6.93
2023-01-27T23:05:10.059Z,6.07
2023-01-27T23:07:41.121Z,7.03
2023-01-27T23:10:10.661Z,11.82
2023-01-27T23:12:39.108Z,6.90
2023-01-27T23:15:08.611Z,7.10
2023-01-27T23:17:36.933Z,7.00
2023-01-27T23:20:07.771Z,6.20
2023-01-27T23:22:36.089Z,6.18
2023-01-27T23:25:04.416Z,5.28
2023-01-27T23:27:32.917Z,6.50
2023-01-27T23:30:01.147Z,5.50
2023-01-27T23:32:30.426Z,6.78
2023-01-27T23:34:58.549Z,6.57
2023-01-27T23:37:28.373Z,6.00
2023-01-27T23:39:57.204Z,5.38
2023-01-27T23:42:25.672Z,4.85
2023-01-27T23:44:53.866Z,5.13
2023-01-27T23:47:22.011Z,5.53
2023-01-27T23:49:52.209Z,4.85
2023-01-27T23:54:50.234Z,4.80
2023-01-27T23:57:20.010Z,5.70
2023-01-27T23:59:48.176Z,4.50
